sensor_id;sensor_type;location;lat;lon;timestamp;temperature;humidity
25708;DHT22;13567;61.652;17.100;2022-08-04T00:00:13;17.70;99.90
25708;DHT22;13567;61.652;17.100;2022-08-04T00:02:56;17.70;99.90
25708;DHT22;13567;61.652;17.100;2022-08-04T00:10:46;17.70;99.90
25708;DHT22;13567;61.652;17.100;2022-08-04T00:13:16;17.60;99.90
25708;DHT22;13567;61.652;17.100;2022-08-04T00:15:51;17.70;99.90
25708;DHT22;13567;61.652;17.100;2022-08-04T00:18:24;17.60;99.90
25708;DHT22;13567;61.652;17.100;2022-08-04T00:20:57;17.60;99.90
25708;DHT22;13567;61.652;17.100;2022-08-04T00:23:26;17.50;99.90
25708;DHT22;13567;61.652;17.100;2022-08-04T00:26:15;17.50;99.90
25708;DHT22;13567;61.652;17.100;2022-08-04T00:28:43;17.40;99.90
25708;DHT22;13567;61.652;17.100;2022-08-04T00:31:11;17.40;99.90
25708;DHT22;13567;61.652;17.100;2022-08-04T00:33:45;17.40;99.90
25708;DHT22;13567;61.652;17.100;2022-08-04T00:36:14;17.30;99.90
25708;DHT22;13567;61.652;17.100;2022-08-04T00:38:43;17.30;99.90
25708;DHT22;13567;61.652;17.100;2022-08-04T00:41:39;17.30;99.90
25708;DHT22;13567;61.652;17.100;2022-08-04T00:50:22;17.30;99.90
25708;DHT22;13567;61.652;17.100;2022-08-04T00:56:02;17.40;99.90
25708;DHT22;13567;61.652;17.100;2022-08-04T00:58:58;17.30;99.90
25708;DHT22;13567;61.652;17.100;2022-08-04T01:07:19;17.10;99.90
25708;DHT22;13567;61.652;17.100;2022-08-04T01:10:25;17.00;99.90
25708;DHT22;13567;61.652;17.100;2022-08-04T01:13:09;17.00;99.90
25708;DHT22;13567;61.652;17.100;2022-08-04T01:15:44;17.00;99.90
25708;DHT22;13567;61.652;17.100;2022-08-04T01:18:35;17.00;99.90
25708;DHT22;13567;61.652;17.100;2022-08-04T01:27:05;16.90;99.90
25708;DHT22;13567;61.652;17.100;2022-08-04T01:29:37;16.80;99.90
25708;DHT22;13567;61.652;17.100;2022-08-04T01:33:01;16.80;99.90
25708;DHT22;13567;61.652;17.100;2022-08-04T01:35:14;16.80;99.90
25708;DHT22;13567;61.652;17.100;2022-08-04T01:38:03;16.80;99.90
25708;DHT22;13567;61.652;17.100;2022-08-04T01:40:48;16.80;99.90
25708;DHT22;13567;61.652;17.100;2022-08-04T01:43:19;16.70;99.90
25708;DHT22;13567;61.652;17.100;2022-08-04T01:45:55;16.80;99.90
25708;DHT22;13567;61.652;17.100;2022-08-04T01:48:24;16.70;99.90
25708;DHT22;13567;61.652;17.100;2022-08-04T01:50:58;16.60;99.90
25708;DHT22;13567;61.652;17.100;2022-08-04T01:53:40;16.60;99.90
25708;DHT22;13567;61.652;17.100;2022-08-04T01:56:09;16.60;99.90
25708;DHT22;13567;61.652;17.100;2022-08-04T01:58:37;16.60;99.90
25708;DHT22;13567;61.652;17.100;2022-08-04T02:01:10;16.50;99.90
25708;DHT22;13567;61.652;17.100;2022-08-04T02:03:40;16.50;99.90
25708;DHT22;13567;61.652;17.100;2022-08-04T02:06:39;16.50;99.90
25708;DHT22;13567;61.652;17.100;2022-08-04T02:09:17;16.40;99.90
25708;DHT22;13567;61.652;17.100;2022-08-04T02:12:04;16.50;99.90
25708;DHT22;13567;61.652;17.100;2022-08-04T02:15:11;16.50;99.90
25708;DHT22;13567;61.652;17.100;2022-08-04T02:17:45;16.40;99.90
25708;DHT22;13567;61.652;17.100;2022-08-04T02:22:58;16.40;99.90
25708;DHT22;13567;61.652;17.100;2022-08-04T02:25:28;16.40;99.90
25708;DHT22;13567;61.652;17.100;2022-08-04T02:28:11;16.40;99.90
25708;DHT22;13567;61.652;17.100;2022-08-04T02:33:45;16.40;99.90
25708;DHT22;13567;61.652;17.100;2022-08-04T02:36:20;16.40;99.90
25708;DHT22;13567;61.652;17.100;2022-08-04T02:39:02;16.40;99.90
25708;DHT22;13567;61.652;17.100;2022-08-04T02:41:31;16.40;99.90
25708;DHT22;13567;61.652;17.100;2022-08-04T02:44:00;16.40;99.90
25708;DHT22;13567;61.652;17.100;2022-08-04T02:46:29;16.40;99.90
25708;DHT22;13567;61.652;17.100;2022-08-04T02:48:57;16.40;99.90
25708;DHT22;13567;61.652;17.100;2022-08-04T02:51:29;16.30;99.90
25708;DHT22;13567;61.652;17.100;2022-08-04T02:53:59;16.30;99.90
25708;DHT22;13567;61.652;17.100;2022-08-04T02:56:29;16.30;99.90
25708;DHT22;13567;61.652;17.100;2022-08-04T03:01:31;16.30;99.90
25708;DHT22;13567;61.652;17.100;2022-08-04T03:04:21;16.20;99.90
25708;DHT22;13567;61.652;17.100;2022-08-04T03:09:39;16.20;99.90
25708;DHT22;13567;61.652;17.100;2022-08-04T03:47:12;16.60;99.90
25708;DHT22;13567;61.652;17.100;2022-08-04T03:53:19;16.60;99.90
25708;DHT22;13567;61.652;17.100;2022-08-04T04:01:49;16.50;99.90
25708;DHT22;13567;61.652;17.100;2022-08-04T04:04:54;16.60;99.90
25708;DHT22;13567;61.652;17.100;2022-08-04T04:07:48;16.70;99.90
25708;DHT22;13567;61.652;17.100;2022-08-04T04:13:35;16.60;99.90
25708;DHT22;13567;61.652;17.100;2022-08-04T04:19:27;16.80;99.90
25708;DHT22;13567;61.652;17.100;2022-08-04T04:28:05;16.90;99.90
25708;DHT22;13567;61.652;17.100;2022-08-04T04:37:45;16.90;99.90
25708;DHT22;13567;61.652;17.100;2022-08-04T04:40:33;16.90;99.90
25708;DHT22;13567;61.652;17.100;2022-08-04T04:46:09;17.00;99.90
25708;DHT22;13567;61.652;17.100;2022-08-04T04:51:54;17.10;99.90
25708;DHT22;13567;61.652;17.100;2022-08-04T04:54:53;17.20;99.90
25708;DHT22;13567;61.652;17.100;2022-08-04T04:57:23;17.20;99.90
25708;DHT22;13567;61.652;17.100;2022-08-04T05:00:12;17.20;99.90
25708;DHT22;13567;61.652;17.100;2022-08-04T05:03:04;17.30;99.90
25708;DHT22;13567;61.652;17.100;2022-08-04T05:13:57;17.50;99.90
25708;DHT22;13567;61.652;17.100;2022-08-04T05:17:22;17.60;99.90
25708;DHT22;13567;61.652;17.100;2022-08-04T05:19:53;17.70;99.90
25708;DHT22;13567;61.652;17.100;2022-08-04T05:23:02;17.70;99.90
25708;DHT22;13567;61.652;17.100;2022-08-04T05:25:46;17.70;99.90
25708;DHT22;13567;61.652;17.100;2022-08-04T05:28:40;17.70;99.90
25708;DHT22;13567;61.652;17.100;2022-08-04T05:31:40;17.80;99.90
25708;DHT22;13567;61.652;17.100;2022-08-04T05:34:12;17.80;99.90
25708;DHT22;13567;61.652;17.100;2022-08-04T05:36:46;17.90;99.90
25708;DHT22;13567;61.652;17.100;2022-08-04T05:39:23;17.90;99.90
25708;DHT22;13567;61.652;17.100;2022-08-04T05:41:51;18.10;99.90
25708;DHT22;13567;61.652;17.100;2022-08-04T05:44:25;18.10;99.90
25708;DHT22;13567;61.652;17.100;2022-08-04T05:46:57;18.20;99.90
25708;DHT22;13567;61.652;17.100;2022-08-04T05:49:26;18.30;99.90
25708;DHT22;13567;61.652;17.100;2022-08-04T05:51:57;18.40;99.90
25708;DHT22;13567;61.652;17.100;2022-08-04T05:54:25;18.50;99.90
25708;DHT22;13567;61.652;17.100;2022-08-04T05:56:54;18.50;99.90
25708;DHT22;13567;61.652;17.100;2022-08-04T05:59:23;18.40;99.90
25708;DHT22;13567;61.652;17.100;2022-08-04T06:01:55;18.50;99.90
25708;DHT22;13567;61.652;17.100;2022-08-04T06:04:46;18.60;99.90
25708;DHT22;13567;61.652;17.100;2022-08-04T06:07:14;18.60;99.90
25708;DHT22;13567;61.652;17.100;2022-08-04T06:09:42;18.60;99.90
25708;DHT22;13567;61.652;17.100;2022-08-04T06:12:15;18.60;99.90
25708;DHT22;13567;61.652;17.100;2022-08-04T06:14:44;18.70;99.90
25708;DHT22;13567;61.652;17.100;2022-08-04T06:17:27;18.90;99.90
25708;DHT22;13567;61.652;17.100;2022-08-04T06:20:15;19.00;99.90
25708;DHT22;13567;61.652;17.100;2022-08-04T06:22:54;19.10;99.90
25708;DHT22;13567;61.652;17.100;2022-08-04T06:25:24;19.10;99.90
25708;DHT22;13567;61.652;17.100;2022-08-04T06:27:53;19.10;99.90
25708;DHT22;13567;61.652;17.100;2022-08-04T06:30:22;19.20;99.90
25708;DHT22;13567;61.652;17.100;2022-08-04T06:32:52;19.20;99.90
25708;DHT22;13567;61.652;17.100;2022-08-04T06:35:31;19.20;99.90
25708;DHT22;13567;61.652;17.100;2022-08-04T06:37:59;19.50;99.90
25708;DHT22;13567;61.652;17.100;2022-08-04T06:40:28;19.60;99.90
25708;DHT22;13567;61.652;17.100;2022-08-04T06:43:01;19.50;99.90
25708;DHT22;13567;61.652;17.100;2022-08-04T06:45:30;19.60;99.90
25708;DHT22;13567;61.652;17.100;2022-08-04T06:48:02;19.60;99.90
25708;DHT22;13567;61.652;17.100;2022-08-04T06:50:31;19.40;99.90
25708;DHT22;13567;61.652;17.100;2022-08-04T06:53:20;19.30;99.90
25708;DHT22;13567;61.652;17.100;2022-08-04T06:55:48;19.50;99.90
25708;DHT22;13567;61.652;17.100;2022-08-04T06:58:19;19.60;99.90
25708;DHT22;13567;61.652;17.100;2022-08-04T07:00:46;19.50;99.90
25708;DHT22;13567;61.652;17.100;2022-08-04T07:03:17;19.50;99.90
25708;DHT22;13567;61.652;17.100;2022-08-04T07:05:48;19.30;99.90
25708;DHT22;13567;61.652;17.100;2022-08-04T07:08:17;19.40;99.90
25708;DHT22;13567;61.652;17.100;2022-08-04T07:10:45;19.70;99.90
25708;DHT22;13567;61.652;17.100;2022-08-04T07:13:12;20.00;99.90
25708;DHT22;13567;61.652;17.100;2022-08-04T07:15:44;20.20;99.90
25708;DHT22;13567;61.652;17.100;2022-08-04T07:18:12;20.50;99.90
25708;DHT22;13567;61.652;17.100;2022-08-04T07:20:43;20.90;99.90
25708;DHT22;13567;61.652;17.100;2022-08-04T07:23:17;20.90;99.90
25708;DHT22;13567;61.652;17.100;2022-08-04T07:25:53;20.90;99.90
25708;DHT22;13567;61.652;17.100;2022-08-04T07:28:39;21.10;99.90
25708;DHT22;13567;61.652;17.100;2022-08-04T07:31:10;21.00;99.90
25708;DHT22;13567;61.652;17.100;2022-08-04T07:33:58;21.00;99.90
25708;DHT22;13567;61.652;17.100;2022-08-04T07:36:47;20.80;99.90
25708;DHT22;13567;61.652;17.100;2022-08-04T07:39:16;21.00;99.90
25708;DHT22;13567;61.652;17.100;2022-08-04T07:41:55;21.00;99.90
25708;DHT22;13567;61.652;17.100;2022-08-04T07:44:22;20.80;99.90
25708;DHT22;13567;61.652;17.100;2022-08-04T07:46:51;20.90;99.90
25708;DHT22;13567;61.652;17.100;2022-08-04T07:49:18;21.10;99.90
25708;DHT22;13567;61.652;17.100;2022-08-04T07:52:06;20.90;99.90
25708;DHT22;13567;61.652;17.100;2022-08-04T07:54:34;20.50;99.90
25708;DHT22;13567;61.652;17.100;2022-08-04T07:57:01;20.20;99.90
25708;DHT22;13567;61.652;17.100;2022-08-04T07:59:28;20.40;99.90
25708;DHT22;13567;61.652;17.100;2022-08-04T08:01:59;20.80;99.90
25708;DHT22;13567;61.652;17.100;2022-08-04T08:04:27;21.10;99.90
25708;DHT22;13567;61.652;17.100;2022-08-04T08:06:56;21.00;99.90
25708;DHT22;13567;61.652;17.100;2022-08-04T08:09:23;21.40;99.90
25708;DHT22;13567;61.652;17.100;2022-08-04T08:11:52;21.80;99.90
25708;DHT22;13567;61.652;17.100;2022-08-04T08:14:39;22.40;99.90
25708;DHT22;13567;61.652;17.100;2022-08-04T08:17:07;22.80;99.90
25708;DHT22;13567;61.652;17.100;2022-08-04T08:19:34;23.30;99.90
25708;DHT22;13567;61.652;17.100;2022-08-04T08:22:03;24.20;99.90
25708;DHT22;13567;61.652;17.100;2022-08-04T08:24:33;24.50;99.90
25708;DHT22;13567;61.652;17.100;2022-08-04T08:27:02;24.90;99.90
25708;DHT22;13567;61.652;17.100;2022-08-04T08:29:34;24.70;99.90
25708;DHT22;13567;61.652;17.100;2022-08-04T08:32:02;24.60;99.90
25708;DHT22;13567;61.652;17.100;2022-08-04T08:34:35;24.20;99.90
25708;DHT22;13567;61.652;17.100;2022-08-04T08:37:34;24.70;99.90
25708;DHT22;13567;61.652;17.100;2022-08-04T08:40:26;25.00;99.90
25708;DHT22;13567;61.652;17.100;2022-08-04T08:52:36;24.70;99.90
25708;DHT22;13567;61.652;17.100;2022-08-04T08:55:39;24.80;99.90
25708;DHT22;13567;61.652;17.100;2022-08-04T08:58:32;25.00;99.90
25708;DHT22;13567;61.652;17.100;2022-08-04T09:01:24;26.00;98.90
25708;DHT22;13567;61.652;17.100;2022-08-04T09:06:53;26.00;97.30
25708;DHT22;13567;61.652;17.100;2022-08-04T09:12:14;25.60;98.50
25708;DHT22;13567;61.652;17.100;2022-08-04T09:17:44;26.30;95.50
25708;DHT22;13567;61.652;17.100;2022-08-04T09:20:38;27.00;95.80
25708;DHT22;13567;61.652;17.100;2022-08-04T09:23:42;27.10;94.60
25708;DHT22;13567;61.652;17.100;2022-08-04T09:28:53;27.80;93.70
25708;DHT22;13567;61.652;17.100;2022-08-04T09:31:32;28.20;91.20
25708;DHT22;13567;61.652;17.100;2022-08-04T09:47:24;27.90;90.90
25708;DHT22;13567;61.652;17.100;2022-08-04T09:49:39;27.80;88.30
25708;DHT22;13567;61.652;17.100;2022-08-04T09:52:25;27.60;90.50
25708;DHT22;13567;61.652;17.100;2022-08-04T09:58:23;27.20;90.10
25708;DHT22;13567;61.652;17.100;2022-08-04T10:01:05;27.30;90.30
25708;DHT22;13567;61.652;17.100;2022-08-04T10:03:38;27.30;88.60
25708;DHT22;13567;61.652;17.100;2022-08-04T10:06:07;27.60;89.40
25708;DHT22;13567;61.652;17.100;2022-08-04T10:08:48;27.70;86.80
25708;DHT22;13567;61.652;17.100;2022-08-04T10:26:51;28.00;84.90
25708;DHT22;13567;61.652;17.100;2022-08-04T10:29:30;27.70;84.10
25708;DHT22;13567;61.652;17.100;2022-08-04T10:35:08;27.40;85.30
25708;DHT22;13567;61.652;17.100;2022-08-04T10:38:29;27.30;85.00
25708;DHT22;13567;61.652;17.100;2022-08-04T10:40:33;28.20;85.00
25708;DHT22;13567;61.652;17.100;2022-08-04T10:45:58;27.40;82.50
25708;DHT22;13567;61.652;17.100;2022-08-04T10:51:56;27.40;84.90
25708;DHT22;13567;61.652;17.100;2022-08-04T11:07:51;27.20;85.40
25708;DHT22;13567;61.652;17.100;2022-08-04T11:10:22;26.80;83.70
25708;DHT22;13567;61.652;17.100;2022-08-04T11:12:56;27.20;84.10
25708;DHT22;13567;61.652;17.100;2022-08-04T11:15:32;27.60;84.20
25708;DHT22;13567;61.652;17.100;2022-08-04T11:18:07;27.50;80.50
25708;DHT22;13567;61.652;17.100;2022-08-04T11:20:49;28.00;81.50
25708;DHT22;13567;61.652;17.100;2022-08-04T11:23:22;29.00;81.00
25708;DHT22;13567;61.652;17.100;2022-08-04T11:25:59;29.50;77.50
25708;DHT22;13567;61.652;17.100;2022-08-04T11:31:22;28.70;76.40
25708;DHT22;13567;61.652;17.100;2022-08-04T11:34:18;29.10;76.10
25708;DHT22;13567;61.652;17.100;2022-08-04T11:37:04;29.90;74.30
25708;DHT22;13567;61.652;17.100;2022-08-04T11:40:15;29.30;71.90
25708;DHT22;13567;61.652;17.100;2022-08-04T11:42:56;29.40;73.30
25708;DHT22;13567;61.652;17.100;2022-08-04T11:45:30;29.00;74.10
25708;DHT22;13567;61.652;17.100;2022-08-04T11:48:04;28.50;74.90
25708;DHT22;13567;61.652;17.100;2022-08-04T11:50:43;28.40;75.00
25708;DHT22;13567;61.652;17.100;2022-08-04T11:53:20;28.80;76.30
25708;DHT22;13567;61.652;17.100;2022-08-04T11:55:50;28.30;74.70
25708;DHT22;13567;61.652;17.100;2022-08-04T11:58:36;27.80;75.60
25708;DHT22;13567;61.652;17.100;2022-08-04T12:01:37;27.10;76.80
25708;DHT22;13567;61.652;17.100;2022-08-04T12:04:34;27.50;77.70
25708;DHT22;13567;61.652;17.100;2022-08-04T12:07:16;26.90;78.50
25708;DHT22;13567;61.652;17.100;2022-08-04T12:16:55;27.50;75.20
25708;DHT22;13567;61.652;17.100;2022-08-04T12:19:07;28.10;75.80
25708;DHT22;13567;61.652;17.100;2022-08-04T12:21:53;28.10;73.90
25708;DHT22;13567;61.652;17.100;2022-08-04T12:24:46;27.90;76.10
25708;DHT22;13567;61.652;17.100;2022-08-04T12:27:19;27.20;76.00
25708;DHT22;13567;61.652;17.100;2022-08-04T12:29:56;27.40;76.30
25708;DHT22;13567;61.652;17.100;2022-08-04T12:32:55;28.10;74.10
25708;DHT22;13567;61.652;17.100;2022-08-04T12:35:32;28.10;72.60
25708;DHT22;13567;61.652;17.100;2022-08-04T12:38:05;28.10;72.80
25708;DHT22;13567;61.652;17.100;2022-08-04T12:40:36;28.10;73.00
25708;DHT22;13567;61.652;17.100;2022-08-04T12:43:53;28.40;74.20
25708;DHT22;13567;61.652;17.100;2022-08-04T12:45:59;28.00;71.90
25708;DHT22;13567;61.652;17.100;2022-08-04T12:48:27;27.60;73.40
25708;DHT22;13567;61.652;17.100;2022-08-04T12:50:56;27.20;74.50
25708;DHT22;13567;61.652;17.100;2022-08-04T12:53:43;26.90;74.40
25708;DHT22;13567;61.652;17.100;2022-08-04T12:56:24;26.50;73.50
25708;DHT22;13567;61.652;17.100;2022-08-04T12:58:53;26.10;75.40
25708;DHT22;13567;61.652;17.100;2022-08-04T13:01:26;26.60;73.30
25708;DHT22;13567;61.652;17.100;2022-08-04T13:04:18;26.20;73.00
25708;DHT22;13567;61.652;17.100;2022-08-04T13:06:59;26.10;75.60
25708;DHT22;13567;61.652;17.100;2022-08-04T13:09:32;26.20;75.20
25708;DHT22;13567;61.652;17.100;2022-08-04T13:12:04;26.20;76.70
25708;DHT22;13567;61.652;17.100;2022-08-04T13:14:34;26.00;76.10
25708;DHT22;13567;61.652;17.100;2022-08-04T13:17:03;25.40;76.10
25708;DHT22;13567;61.652;17.100;2022-08-04T13:19:34;25.50;78.00
25708;DHT22;13567;61.652;17.100;2022-08-04T13:22:07;25.50;78.80
25708;DHT22;13567;61.652;17.100;2022-08-04T13:24:36;25.60;77.50
25708;DHT22;13567;61.652;17.100;2022-08-04T13:27:25;25.50;77.10
25708;DHT22;13567;61.652;17.100;2022-08-04T13:29:55;25.00;79.20
25708;DHT22;13567;61.652;17.100;2022-08-04T13:32:30;24.50;80.10
25708;DHT22;13567;61.652;17.100;2022-08-04T13:35:00;24.90;80.60
25708;DHT22;13567;61.652;17.100;2022-08-04T13:37:33;25.00;81.90
25708;DHT22;13567;61.652;17.100;2022-08-04T13:40:09;25.10;80.20
25708;DHT22;13567;61.652;17.100;2022-08-04T13:42:37;24.60;80.20
25708;DHT22;13567;61.652;17.100;2022-08-04T13:45:06;24.90;80.50
25708;DHT22;13567;61.652;17.100;2022-08-04T13:47:36;24.90;79.80
25708;DHT22;13567;61.652;17.100;2022-08-04T13:50:20;24.70;81.20
25708;DHT22;13567;61.652;17.100;2022-08-04T13:52:54;25.00;82.00
25708;DHT22;13567;61.652;17.100;2022-08-04T13:58:06;24.60;80.70
25708;DHT22;13567;61.652;17.100;2022-08-04T14:01:04;24.20;81.70
25708;DHT22;13567;61.652;17.100;2022-08-04T14:03:35;24.10;82.50
25708;DHT22;13567;61.652;17.100;2022-08-04T14:06:25;24.50;84.10
25708;DHT22;13567;61.652;17.100;2022-08-04T14:08:57;24.90;83.00
25708;DHT22;13567;61.652;17.100;2022-08-04T14:11:36;24.60;81.20
25708;DHT22;13567;61.652;17.100;2022-08-04T14:14:27;24.60;80.70
25708;DHT22;13567;61.652;17.100;2022-08-04T14:16:58;24.80;81.80
25708;DHT22;13567;61.652;17.100;2022-08-04T14:19:56;24.80;78.80
25708;DHT22;13567;61.652;17.100;2022-08-04T14:25:05;24.30;80.50
25708;DHT22;13567;61.652;17.100;2022-08-04T14:27:53;24.20;80.70
25708;DHT22;13567;61.652;17.100;2022-08-04T14:30:27;24.50;79.50
25708;DHT22;13567;61.652;17.100;2022-08-04T14:32:55;24.90;80.90
25708;DHT22;13567;61.652;17.100;2022-08-04T14:35:24;25.00;80.00
25708;DHT22;13567;61.652;17.100;2022-08-04T14:37:57;24.90;79.80
25708;DHT22;13567;61.652;17.100;2022-08-04T14:40:31;24.40;80.10
25708;DHT22;13567;61.652;17.100;2022-08-04T14:43:00;23.90;80.00
25708;DHT22;13567;61.652;17.100;2022-08-04T14:45:39;23.70;80.20
25708;DHT22;13567;61.652;17.100;2022-08-04T14:48:20;23.50;80.10
25708;DHT22;13567;61.652;17.100;2022-08-04T14:50:49;23.40;80.50
25708;DHT22;13567;61.652;17.100;2022-08-04T14:53:22;23.50;81.40
25708;DHT22;13567;61.652;17.100;2022-08-04T14:55:54;23.70;81.40
25708;DHT22;13567;61.652;17.100;2022-08-04T14:58:26;24.10;81.20
25708;DHT22;13567;61.652;17.100;2022-08-04T15:01:07;24.50;79.70
25708;DHT22;13567;61.652;17.100;2022-08-04T15:03:40;24.20;78.20
25708;DHT22;13567;61.652;17.100;2022-08-04T15:06:20;23.90;79.80
25708;DHT22;13567;61.652;17.100;2022-08-04T15:08:50;23.70;81.00
25708;DHT22;13567;61.652;17.100;2022-08-04T15:11:19;23.70;83.40
25708;DHT22;13567;61.652;17.100;2022-08-04T15:13:54;23.60;84.50
25708;DHT22;13567;61.652;17.100;2022-08-04T15:16:22;23.50;83.20
25708;DHT22;13567;61.652;17.100;2022-08-04T15:18:51;23.40;82.50
25708;DHT22;13567;61.652;17.100;2022-08-04T15:21:23;23.20;83.70
25708;DHT22;13567;61.652;17.100;2022-08-04T15:23:51;23.10;84.80
25708;DHT22;13567;61.652;17.100;2022-08-04T15:26:30;23.10;85.30
25708;DHT22;13567;61.652;17.100;2022-08-04T15:29:13;23.10;85.70
25708;DHT22;13567;61.652;17.100;2022-08-04T15:31:43;23.00;84.60
25708;DHT22;13567;61.652;17.100;2022-08-04T15:34:50;23.00;86.40
25708;DHT22;13567;61.652;17.100;2022-08-04T15:37:27;23.10;86.40
25708;DHT22;13567;61.652;17.100;2022-08-04T15:40:11;23.00;85.70
25708;DHT22;13567;61.652;17.100;2022-08-04T15:42:47;22.90;86.20
25708;DHT22;13567;61.652;17.100;2022-08-04T15:45:24;22.90;86.50
25708;DHT22;13567;61.652;17.100;2022-08-04T15:53:32;22.80;89.50
25708;DHT22;13567;61.652;17.100;2022-08-04T15:58:56;22.90;88.40
25708;DHT22;13567;61.652;17.100;2022-08-04T16:01:24;23.10;88.60
25708;DHT22;13567;61.652;17.100;2022-08-04T16:03:53;23.50;88.30
25708;DHT22;13567;61.652;17.100;2022-08-04T16:09:00;24.30;84.60
25708;DHT22;13567;61.652;17.100;2022-08-04T16:22:02;24.00;84.60
25708;DHT22;13567;61.652;17.100;2022-08-04T16:27:03;23.60;84.70
25708;DHT22;13567;61.652;17.100;2022-08-04T16:29:45;23.40;87.50
25708;DHT22;13567;61.652;17.100;2022-08-04T16:32:21;23.30;86.70
25708;DHT22;13567;61.652;17.100;2022-08-04T16:35:00;23.10;87.40
25708;DHT22;13567;61.652;17.100;2022-08-04T16:37:35;23.10;89.10
25708;DHT22;13567;61.652;17.100;2022-08-04T16:40:26;23.10;89.10
25708;DHT22;13567;61.652;17.100;2022-08-04T16:43:09;23.20;90.10
25708;DHT22;13567;61.652;17.100;2022-08-04T16:45:56;23.20;90.00
25708;DHT22;13567;61.652;17.100;2022-08-04T16:48:29;23.10;89.90
25708;DHT22;13567;61.652;17.100;2022-08-04T16:50:59;23.10;90.20
25708;DHT22;13567;61.652;17.100;2022-08-04T16:53:38;22.90;90.60
25708;DHT22;13567;61.652;17.100;2022-08-04T16:56:31;23.00;90.80
25708;DHT22;13567;61.652;17.100;2022-08-04T16:59:07;23.00;90.90
25708;DHT22;13567;61.652;17.100;2022-08-04T17:01:36;22.80;90.40
25708;DHT22;13567;61.652;17.100;2022-08-04T17:04:03;22.80;90.00
25708;DHT22;13567;61.652;17.100;2022-08-04T17:06:36;22.70;90.40
25708;DHT22;13567;61.652;17.100;2022-08-04T17:09:09;22.60;90.30
25708;DHT22;13567;61.652;17.100;2022-08-04T17:11:36;22.50;90.30
25708;DHT22;13567;61.652;17.100;2022-08-04T17:14:03;22.50;91.10
25708;DHT22;13567;61.652;17.100;2022-08-04T17:16:34;22.50;90.90
25708;DHT22;13567;61.652;17.100;2022-08-04T17:19:03;22.50;91.10
25708;DHT22;13567;61.652;17.100;2022-08-04T17:21:33;22.50;91.00
25708;DHT22;13567;61.652;17.100;2022-08-04T17:24:02;22.50;91.50
25708;DHT22;13567;61.652;17.100;2022-08-04T17:26:45;22.40;91.70
25708;DHT22;13567;61.652;17.100;2022-08-04T17:29:21;22.30;92.20
25708;DHT22;13567;61.652;17.100;2022-08-04T17:32:18;22.30;92.90
25708;DHT22;13567;61.652;17.100;2022-08-04T17:34:57;22.20;93.00
25708;DHT22;13567;61.652;17.100;2022-08-04T17:37:25;22.10;93.30
25708;DHT22;13567;61.652;17.100;2022-08-04T17:40:12;21.90;93.70
25708;DHT22;13567;61.652;17.100;2022-08-04T17:42:49;21.80;94.50
25708;DHT22;13567;61.652;17.100;2022-08-04T17:45:17;21.70;94.80
25708;DHT22;13567;61.652;17.100;2022-08-04T17:48:06;21.60;95.20
25708;DHT22;13567;61.652;17.100;2022-08-04T17:50:35;21.60;95.30
25708;DHT22;13567;61.652;17.100;2022-08-04T17:53:09;21.50;95.50
25708;DHT22;13567;61.652;17.100;2022-08-04T17:55:45;21.40;95.60
25708;DHT22;13567;61.652;17.100;2022-08-04T17:58:20;21.40;96.30
25708;DHT22;13567;61.652;17.100;2022-08-04T18:01:00;21.30;96.30
25708;DHT22;13567;61.652;17.100;2022-08-04T18:03:47;21.20;96.50
25708;DHT22;13567;61.652;17.100;2022-08-04T18:06:20;21.20;96.60
25708;DHT22;13567;61.652;17.100;2022-08-04T18:08:55;21.10;96.90
25708;DHT22;13567;61.652;17.100;2022-08-04T18:12:00;21.00;97.10
25708;DHT22;13567;61.652;17.100;2022-08-04T18:17:04;20.90;97.30
25708;DHT22;13567;61.652;17.100;2022-08-04T18:19:52;20.90;97.20
25708;DHT22;13567;61.652;17.100;2022-08-04T18:22:21;20.80;97.40
25708;DHT22;13567;61.652;17.100;2022-08-04T18:24:54;20.80;97.40
25708;DHT22;13567;61.652;17.100;2022-08-04T18:27:24;20.80;97.70
25708;DHT22;13567;61.652;17.100;2022-08-04T18:29:56;20.80;97.70
25708;DHT22;13567;61.652;17.100;2022-08-04T18:32:43;20.70;97.80
25708;DHT22;13567;61.652;17.100;2022-08-04T18:35:32;20.70;97.60
25708;DHT22;13567;61.652;17.100;2022-08-04T18:38:19;20.60;97.90
25708;DHT22;13567;61.652;17.100;2022-08-04T18:40:50;20.50;98.10
25708;DHT22;13567;61.652;17.100;2022-08-04T18:43:19;20.40;98.30
25708;DHT22;13567;61.652;17.100;2022-08-04T18:45:57;20.40;98.40
25708;DHT22;13567;61.652;17.100;2022-08-04T18:48:26;20.30;98.50
25708;DHT22;13567;61.652;17.100;2022-08-04T18:51:03;20.30;98.90
25708;DHT22;13567;61.652;17.100;2022-08-04T18:53:51;20.20;99.30
25708;DHT22;13567;61.652;17.100;2022-08-04T18:56:26;20.20;99.80
25708;DHT22;13567;61.652;17.100;2022-08-04T18:59:00;20.10;99.90
25708;DHT22;13567;61.652;17.100;2022-08-04T19:01:30;20.10;99.90
25708;DHT22;13567;61.652;17.100;2022-08-04T19:04:18;20.00;99.90
25708;DHT22;13567;61.652;17.100;2022-08-04T19:07:04;20.00;99.90
25708;DHT22;13567;61.652;17.100;2022-08-04T19:09:52;19.90;99.90
25708;DHT22;13567;61.652;17.100;2022-08-04T19:12:26;19.90;99.90
25708;DHT22;13567;61.652;17.100;2022-08-04T19:14:55;19.90;99.90
25708;DHT22;13567;61.652;17.100;2022-08-04T19:17:25;19.80;99.90
25708;DHT22;13567;61.652;17.100;2022-08-04T19:20:12;19.80;99.90
25708;DHT22;13567;61.652;17.100;2022-08-04T19:22:52;19.80;99.90
25708;DHT22;13567;61.652;17.100;2022-08-04T19:25:40;19.70;99.90
25708;DHT22;13567;61.652;17.100;2022-08-04T19:28:28;19.70;99.90
25708;DHT22;13567;61.652;17.100;2022-08-04T19:31:01;19.70;99.90
25708;DHT22;13567;61.652;17.100;2022-08-04T19:33:29;19.80;99.90
25708;DHT22;13567;61.652;17.100;2022-08-04T19:36:16;19.70;99.90
25708;DHT22;13567;61.652;17.100;2022-08-04T19:38:44;19.70;99.90
25708;DHT22;13567;61.652;17.100;2022-08-04T19:41:11;19.70;99.90
25708;DHT22;13567;61.652;17.100;2022-08-04T19:43:41;19.70;99.90
25708;DHT22;13567;61.652;17.100;2022-08-04T19:46:09;19.70;99.90
25708;DHT22;13567;61.652;17.100;2022-08-04T19:48:38;19.70;99.90
25708;DHT22;13567;61.652;17.100;2022-08-04T19:51:06;19.70;99.90
25708;DHT22;13567;61.652;17.100;2022-08-04T19:53:33;19.60;99.90
25708;DHT22;13567;61.652;17.100;2022-08-04T19:56:08;19.60;99.90
25708;DHT22;13567;61.652;17.100;2022-08-04T19:58:35;19.50;99.90
25708;DHT22;13567;61.652;17.100;2022-08-04T20:01:04;19.50;99.90
25708;DHT22;13567;61.652;17.100;2022-08-04T20:03:51;19.40;99.90
25708;DHT22;13567;61.652;17.100;2022-08-04T20:06:38;19.40;99.90